sensor_id;sensor_type;location;lat;lon;timestamp;P1;durP1;ratioP1;P2;durP2;ratioP2
15132;SDS011;7667;51.232;17.110;2023-07-29T00:02:05;24.53;;;5.20;;
15132;SDS011;7667;51.232;17.110;2023-07-29T00:04:33;5.23;;;4.73;;
15132;SDS011;7667;51.232;17.110;2023-07-29T00:07:00;5.20;;;4.70;;
15132;SDS011;7667;51.232;17.110;2023-07-29T00:09:28;6.33;;;5.73;;
15132;SDS011;7667;51.232;17.110;2023-07-29T00:11:55;5.60;;;5.10;;
15132;SDS011;7667;51.232;17.110;2023-07-29T00:14:23;5.47;;;4.97;;
15132;SDS011;7667;51.232;17.110;2023-07-29T00:16:50;5.87;;;5.07;;
15132;SDS011;7667;51.232;17.110;2023-07-29T00:19:18;7.83;;;6.17;;
15132;SDS011;7667;51.232;17.110;2023-07-29T00:21:47;7.87;;;7.17;;
15132;SDS011;7667;51.232;17.110;2023-07-29T00:24:14;8.83;;;8.03;;
15132;SDS011;7667;51.232;17.110;2023-07-29T00:26:42;6.60;;;6.00;;
15132;SDS011;7667;51.232;17.110;2023-07-29T00:29:09;5.73;;;5.30;;
15132;SDS011;7667;51.232;17.110;2023-07-29T00:31:37;6.40;;;5.80;;
15132;SDS011;7667;51.232;17.110;2023-07-29T00:34:05;6.70;;;6.10;;
15132;SDS011;7667;51.232;17.110;2023-07-29T00:36:32;6.47;;;5.97;;
15132;SDS011;7667;51.232;17.110;2023-07-29T00:39:00;5.87;;;5.37;;
15132;SDS011;7667;51.232;17.110;2023-07-29T00:41:28;5.63;;;5.13;;
15132;SDS011;7667;51.232;17.110;2023-07-29T00:43:55;5.23;;;4.37;;
15132;SDS011;7667;51.232;17.110;2023-07-29T00:46:23;5.20;;;4.70;;
15132;SDS011;7667;51.232;17.110;2023-07-29T00:48:51;5.80;;;5.27;;
15132;SDS011;7667;51.232;17.110;2023-07-29T00:51:19;4.20;;;3.80;;
15132;SDS011;7667;51.232;17.110;2023-07-29T00:53:47;4.50;;;4.10;;
15132;SDS011;7667;51.232;17.110;2023-07-29T00:56:14;5.50;;;4.97;;
15132;SDS011;7667;51.232;17.110;2023-07-29T00:58:42;5.10;;;4.70;;
15132;SDS011;7667;51.232;17.110;2023-07-29T01:01:09;5.33;;;4.93;;
15132;SDS011;7667;51.232;17.110;2023-07-29T01:03:37;5.10;;;4.70;;
15132;SDS011;7667;51.232;17.110;2023-07-29T01:18:02;5.17;;;4.67;;
15132;SDS011;7667;51.232;17.110;2023-07-29T01:20:48;4.43;;;4.10;;
15132;SDS011;7667;51.232;17.110;2023-07-29T01:23:26;4.30;;;4.00;;
15132;SDS011;7667;51.232;17.110;2023-07-29T01:25:57;4.40;;;4.10;;
15132;SDS011;7667;51.232;17.110;2023-07-29T01:28:25;4.60;;;4.10;;
15132;SDS011;7667;51.232;17.110;2023-07-29T01:30:57;4.60;;;4.20;;
15132;SDS011;7667;51.232;17.110;2023-07-29T01:33:35;4.43;;;4.03;;
15132;SDS011;7667;51.232;17.110;2023-07-29T01:36:12;4.33;;;4.00;;
15132;SDS011;7667;51.232;17.110;2023-07-29T01:38:47;4.87;;;4.33;;
15132;SDS011;7667;51.232;17.110;2023-07-29T01:41:17;5.10;;;4.60;;
15132;SDS011;7667;51.232;17.110;2023-07-29T01:43:45;6.07;;;5.47;;
15132;SDS011;7667;51.232;17.110;2023-07-29T01:46:14;5.67;;;5.17;;
15132;SDS011;7667;51.232;17.110;2023-07-29T01:48:42;5.13;;;4.70;;
15132;SDS011;7667;51.232;17.110;2023-07-29T01:51:11;6.40;;;4.50;;
15132;SDS011;7667;51.232;17.110;2023-07-29T01:53:39;4.90;;;3.90;;
15132;SDS011;7667;51.232;17.110;2023-07-29T01:56:07;4.20;;;3.80;;
15132;SDS011;7667;51.232;17.110;2023-07-29T01:58:34;4.00;;;3.60;;
15132;SDS011;7667;51.232;17.110;2023-07-29T02:01:02;4.00;;;3.60;;
15132;SDS011;7667;51.232;17.110;2023-07-29T02:03:29;3.63;;;3.20;;
15132;SDS011;7667;51.232;17.110;2023-07-29T02:05:57;4.00;;;3.23;;
15132;SDS011;7667;51.232;17.110;2023-07-29T02:08:25;3.80;;;3.50;;
15132;SDS011;7667;51.232;17.110;2023-07-29T02:10:52;3.50;;;3.20;;
15132;SDS011;7667;51.232;17.110;2023-07-29T02:13:20;3.60;;;3.30;;
15132;SDS011;7667;51.232;17.110;2023-07-29T02:15:47;3.40;;;3.10;;
15132;SDS011;7667;51.232;17.110;2023-07-29T02:18:15;4.83;;;3.83;;
15132;SDS011;7667;51.232;17.110;2023-07-29T02:20:42;10.57;;;4.13;;
15132;SDS011;7667;51.232;17.110;2023-07-29T02:23:16;4.03;;;3.70;;
15132;SDS011;7667;51.232;17.110;2023-07-29T02:25:44;4.50;;;3.80;;
15132;SDS011;7667;51.232;17.110;2023-07-29T02:28:11;4.53;;;4.13;;
15132;SDS011;7667;51.232;17.110;2023-07-29T02:30:40;4.50;;;4.00;;
15132;SDS011;7667;51.232;17.110;2023-07-29T02:33:11;4.33;;;3.73;;
15132;SDS011;7667;51.232;17.110;2023-07-29T02:35:39;5.60;;;4.23;;
15132;SDS011;7667;51.232;17.110;2023-07-29T02:38:06;4.80;;;4.40;;
15132;SDS011;7667;51.232;17.110;2023-07-29T02:40:34;5.33;;;4.20;;
15132;SDS011;7667;51.232;17.110;2023-07-29T02:43:01;4.90;;;4.50;;
15132;SDS011;7667;51.232;17.110;2023-07-29T02:45:29;6.37;;;5.13;;
15132;SDS011;7667;51.232;17.110;2023-07-29T02:47:56;5.43;;;4.97;;
15132;SDS011;7667;51.232;17.110;2023-07-29T02:50:24;6.03;;;5.33;;
15132;SDS011;7667;51.232;17.110;2023-07-29T02:52:51;5.60;;;5.10;;
15132;SDS011;7667;51.232;17.110;2023-07-29T02:55:19;7.40;;;4.63;;
15132;SDS011;7667;51.232;17.110;2023-07-29T02:57:46;5.43;;;4.90;;
15132;SDS011;7667;51.232;17.110;2023-07-29T03:00:14;6.37;;;4.80;;
15132;SDS011;7667;51.232;17.110;2023-07-29T03:02:42;9.20;;;6.57;;
15132;SDS011;7667;51.232;17.110;2023-07-29T03:05:09;6.90;;;5.57;;
15132;SDS011;7667;51.232;17.110;2023-07-29T03:07:37;5.63;;;4.93;;
15132;SDS011;7667;51.232;17.110;2023-07-29T03:10:05;5.93;;;5.40;;
15132;SDS011;7667;51.232;17.110;2023-07-29T03:12:33;6.80;;;5.57;;
15132;SDS011;7667;51.232;17.110;2023-07-29T03:15:00;5.00;;;4.50;;
15132;SDS011;7667;51.232;17.110;2023-07-29T03:17:28;4.93;;;4.43;;
15132;SDS011;7667;51.232;17.110;2023-07-29T03:19:56;5.63;;;4.90;;
15132;SDS011;7667;51.232;17.110;2023-07-29T03:22:23;5.70;;;5.20;;
15132;SDS011;7667;51.232;17.110;2023-07-29T03:24:51;6.70;;;5.33;;
15132;SDS011;7667;51.232;17.110;2023-07-29T03:27:19;6.83;;;6.23;;
15132;SDS011;7667;51.232;17.110;2023-07-29T03:29:46;6.27;;;5.77;;
15132;SDS011;7667;51.232;17.110;2023-07-29T03:32:14;7.47;;;5.80;;
15132;SDS011;7667;51.232;17.110;2023-07-29T03:34:41;6.17;;;5.67;;
15132;SDS011;7667;51.232;17.110;2023-07-29T03:37:09;6.93;;;6.33;;
15132;SDS011;7667;51.232;17.110;2023-07-29T03:39:37;7.13;;;6.53;;
15132;SDS011;7667;51.232;17.110;2023-07-29T03:42:05;6.47;;;5.77;;
15132;SDS011;7667;51.232;17.110;2023-07-29T03:44:32;6.23;;;5.63;;
15132;SDS011;7667;51.232;17.110;2023-07-29T03:47:02;6.00;;;5.40;;
15132;SDS011;7667;51.232;17.110;2023-07-29T03:49:30;6.17;;;5.57;;
15132;SDS011;7667;51.232;17.110;2023-07-29T03:51:57;6.40;;;5.90;;
15132;SDS011;7667;51.232;17.110;2023-07-29T03:54:25;6.70;;;5.53;;
15132;SDS011;7667;51.232;17.110;2023-07-29T03:56:52;6.63;;;6.03;;
15132;SDS011;7667;51.232;17.110;2023-07-29T03:59:20;8.07;;;6.47;;
15132;SDS011;7667;51.232;17.110;2023-07-29T04:01:49;6.40;;;5.80;;
15132;SDS011;7667;51.232;17.110;2023-07-29T04:04:17;7.63;;;6.90;;
15132;SDS011;7667;51.232;17.110;2023-07-29T04:06:44;7.53;;;6.57;;
15132;SDS011;7667;51.232;17.110;2023-07-29T04:09:12;6.90;;;6.20;;
15132;SDS011;7667;51.232;17.110;2023-07-29T04:11:40;6.97;;;6.27;;
15132;SDS011;7667;51.232;17.110;2023-07-29T04:14:07;7.43;;;5.87;;
15132;SDS011;7667;51.232;17.110;2023-07-29T04:16:35;5.93;;;5.20;;
15132;SDS011;7667;51.232;17.110;2023-07-29T04:19:03;5.80;;;4.97;;
15132;SDS011;7667;51.232;17.110;2023-07-29T04:21:30;5.70;;;4.80;;
15132;SDS011;7667;51.232;17.110;2023-07-29T04:23:58;7.40;;;5.70;;
15132;SDS011;7667;51.232;17.110;2023-07-29T04:26:26;6.10;;;5.03;;
15132;SDS011;7667;51.232;17.110;2023-07-29T04:28:53;5.20;;;4.80;;
15132;SDS011;7667;51.232;17.110;2023-07-29T04:31:21;4.00;;;3.70;;
15132;SDS011;7667;51.232;17.110;2023-07-29T04:33:48;5.30;;;4.20;;
15132;SDS011;7667;51.232;17.110;2023-07-29T04:36:16;3.90;;;3.50;;
15132;SDS011;7667;51.232;17.110;2023-07-29T04:38:43;6.63;;;4.40;;
15132;SDS011;7667;51.232;17.110;2023-07-29T04:41:11;5.80;;;3.93;;
15132;SDS011;7667;51.232;17.110;2023-07-29T04:43:38;11.10;;;6.83;;
15132;SDS011;7667;51.232;17.110;2023-07-29T04:46:06;13.27;;;8.20;;
15132;SDS011;7667;51.232;17.110;2023-07-29T04:48:37;13.80;;;10.33;;
15132;SDS011;7667;51.232;17.110;2023-07-29T04:51:05;15.93;;;10.67;;
15132;SDS011;7667;51.232;17.110;2023-07-29T04:53:32;12.33;;;8.73;;
15132;SDS011;7667;51.232;17.110;2023-07-29T04:56:02;11.60;;;8.60;;
15132;SDS011;7667;51.232;17.110;2023-07-29T04:58:30;8.10;;;6.67;;
15132;SDS011;7667;51.232;17.110;2023-07-29T05:01:02;12.80;;;6.57;;
15132;SDS011;7667;51.232;17.110;2023-07-29T05:03:30;9.10;;;6.00;;
15132;SDS011;7667;51.232;17.110;2023-07-29T05:05:58;6.60;;;6.00;;
15132;SDS011;7667;51.232;17.110;2023-07-29T05:08:26;7.30;;;5.60;;
15132;SDS011;7667;51.232;17.110;2023-07-29T05:10:54;6.53;;;5.40;;
15132;SDS011;7667;51.232;17.110;2023-07-29T05:13:22;7.63;;;5.27;;
15132;SDS011;7667;51.232;17.110;2023-07-29T05:15:50;5.80;;;5.20;;
15132;SDS011;7667;51.232;17.110;2023-07-29T05:18:18;6.67;;;4.80;;
15132;SDS011;7667;51.232;17.110;2023-07-29T05:20:46;5.47;;;4.63;;
15132;SDS011;7667;51.232;17.110;2023-07-29T05:23:14;5.47;;;4.20;;
15132;SDS011;7667;51.232;17.110;2023-07-29T05:25:42;5.13;;;4.07;;
15132;SDS011;7667;51.232;17.110;2023-07-29T05:28:09;3.93;;;3.57;;
15132;SDS011;7667;51.232;17.110;2023-07-29T05:30:37;4.83;;;3.30;;
15132;SDS011;7667;51.232;17.110;2023-07-29T05:33:06;4.70;;;3.60;;
15132;SDS011;7667;51.232;17.110;2023-07-29T05:35:35;3.77;;;3.37;;
15132;SDS011;7667;51.232;17.110;2023-07-29T05:38:03;4.20;;;3.47;;
15132;SDS011;7667;51.232;17.110;2023-07-29T05:40:32;3.50;;;3.20;;
15132;SDS011;7667;51.232;17.110;2023-07-29T05:43:00;6.07;;;3.60;;
15132;SDS011;7667;51.232;17.110;2023-07-29T05:45:29;3.20;;;2.90;;
15132;SDS011;7667;51.232;17.110;2023-07-29T05:47:58;2.97;;;2.70;;
15132;SDS011;7667;51.232;17.110;2023-07-29T05:50:25;3.40;;;2.57;;
15132;SDS011;7667;51.232;17.110;2023-07-29T05:52:53;3.73;;;2.70;;
15132;SDS011;7667;51.232;17.110;2023-07-29T05:55:21;3.77;;;2.80;;
15132;SDS011;7667;51.232;17.110;2023-07-29T05:57:48;3.40;;;2.50;;
15132;SDS011;7667;51.232;17.110;2023-07-29T06:00:16;3.80;;;2.97;;
15132;SDS011;7667;51.232;17.110;2023-07-29T06:02:43;3.43;;;2.90;;
15132;SDS011;7667;51.232;17.110;2023-07-29T06:05:11;2.80;;;2.60;;
15132;SDS011;7667;51.232;17.110;2023-07-29T06:07:38;3.03;;;2.70;;
15132;SDS011;7667;51.232;17.110;2023-07-29T06:10:12;6.43;;;3.00;;
15132;SDS011;7667;51.232;17.110;2023-07-29T06:12:44;2.90;;;2.70;;
15132;SDS011;7667;51.232;17.110;2023-07-29T06:15:13;3.13;;;2.47;;
15132;SDS011;7667;51.232;17.110;2023-07-29T06:17:40;3.53;;;2.90;;
15132;SDS011;7667;51.232;17.110;2023-07-29T06:20:08;3.63;;;2.80;;
15132;SDS011;7667;51.232;17.110;2023-07-29T06:22:36;2.40;;;2.20;;
15132;SDS011;7667;51.232;17.110;2023-07-29T06:25:04;2.87;;;2.60;;
15132;SDS011;7667;51.232;17.110;2023-07-29T06:27:32;3.03;;;2.50;;
15132;SDS011;7667;51.232;17.110;2023-07-29T06:29:59;2.97;;;2.20;;
15132;SDS011;7667;51.232;17.110;2023-07-29T06:32:27;2.63;;;2.40;;
15132;SDS011;7667;51.232;17.110;2023-07-29T06:34:55;3.23;;;2.13;;
15132;SDS011;7667;51.232;17.110;2023-07-29T06:37:22;2.00;;;1.80;;
15132;SDS011;7667;51.232;17.110;2023-07-29T06:39:50;2.85;;;2.13;;
15132;SDS011;7667;51.232;17.110;2023-07-29T06:42:18;2.47;;;1.85;;
15132;SDS011;7667;51.232;17.110;2023-07-29T06:44:45;2.13;;;1.92;;
15132;SDS011;7667;51.232;17.110;2023-07-29T06:47:13;2.60;;;1.65;;
15132;SDS011;7667;51.232;17.110;2023-07-29T06:49:40;3.72;;;1.80;;
15132;SDS011;7667;51.232;17.110;2023-07-29T06:52:08;2.15;;;1.88;;
15132;SDS011;7667;51.232;17.110;2023-07-29T06:54:35;2.10;;;1.90;;
15132;SDS011;7667;51.232;17.110;2023-07-29T06:57:03;3.78;;;1.90;;
15132;SDS011;7667;51.232;17.110;2023-07-29T06:59:31;2.83;;;1.75;;
15132;SDS011;7667;51.232;17.110;2023-07-29T07:01:59;2.15;;;1.80;;
15132;SDS011;7667;51.232;17.110;2023-07-29T07:04:26;1.60;;;1.50;;
15132;SDS011;7667;51.232;17.110;2023-07-29T07:06:54;2.10;;;1.90;;
15132;SDS011;7667;51.232;17.110;2023-07-29T07:09:22;1.73;;;1.63;;
15132;SDS011;7667;51.232;17.110;2023-07-29T07:11:49;1.80;;;1.70;;
15132;SDS011;7667;51.232;17.110;2023-07-29T07:14:17;1.70;;;1.60;;
15132;SDS011;7667;51.232;17.110;2023-07-29T07:16:45;1.80;;;1.70;;
15132;SDS011;7667;51.232;17.110;2023-07-29T07:19:13;2.00;;;1.80;;
15132;SDS011;7667;51.232;17.110;2023-07-29T07:21:40;2.00;;;1.65;;
15132;SDS011;7667;51.232;17.110;2023-07-29T07:24:08;1.45;;;1.35;;
15132;SDS011;7667;51.232;17.110;2023-07-29T07:26:36;1.70;;;1.42;;
15132;SDS011;7667;51.232;17.110;2023-07-29T07:29:05;3.05;;;1.70;;
15132;SDS011;7667;51.232;17.110;2023-07-29T07:31:33;1.90;;;1.70;;
15132;SDS011;7667;51.232;17.110;2023-07-29T07:34:01;1.92;;;1.35;;
15132;SDS011;7667;51.232;17.110;2023-07-29T07:36:29;2.45;;;1.70;;
15132;SDS011;7667;51.232;17.110;2023-07-29T07:38:57;1.80;;;1.20;;
15132;SDS011;7667;51.232;17.110;2023-07-29T07:41:25;2.10;;;1.65;;
15132;SDS011;7667;51.232;17.110;2023-07-29T07:43:53;2.35;;;1.40;;
15132;SDS011;7667;51.232;17.110;2023-07-29T07:46:20;1.73;;;1.55;;
15132;SDS011;7667;51.232;17.110;2023-07-29T07:48:48;3.10;;;1.63;;
15132;SDS011;7667;51.232;17.110;2023-07-29T07:51:15;1.75;;;1.40;;
15132;SDS011;7667;51.232;17.110;2023-07-29T07:53:43;1.50;;;1.40;;
15132;SDS011;7667;51.232;17.110;2023-07-29T07:56:10;1.40;;;1.30;;
15132;SDS011;7667;51.232;17.110;2023-07-29T07:58:38;1.45;;;1.23;;
15132;SDS011;7667;51.232;17.110;2023-07-29T08:01:06;1.75;;;1.60;;
15132;SDS011;7667;51.232;17.110;2023-07-29T08:03:35;2.45;;;1.42;;
15132;SDS011;7667;51.232;17.110;2023-07-29T08:06:03;1.55;;;1.40;;
15132;SDS011;7667;51.232;17.110;2023-07-29T08:08:35;1.40;;;1.30;;
15132;SDS011;7667;51.232;17.110;2023-07-29T08:11:02;1.40;;;1.30;;
15132;SDS011;7667;51.232;17.110;2023-07-29T08:13:30;3.75;;;1.52;;
15132;SDS011;7667;51.232;17.110;2023-07-29T08:15:57;1.30;;;1.20;;
15132;SDS011;7667;51.232;17.110;2023-07-29T08:18:25;2.67;;;1.45;;
15132;SDS011;7667;51.232;17.110;2023-07-29T08:20:56;2.20;;;1.40;;
15132;SDS011;7667;51.232;17.110;2023-07-29T08:23:30;2.88;;;1.20;;
15132;SDS011;7667;51.232;17.110;2023-07-29T08:25:59;2.88;;;1.25;;
15132;SDS011;7667;51.232;17.110;2023-07-29T08:28:39;1.67;;;1.20;;
15132;SDS011;7667;51.232;17.110;2023-07-29T08:31:07;1.48;;;1.23;;
15132;SDS011;7667;51.232;17.110;2023-07-29T08:33:35;1.50;;;1.40;;
15132;SDS011;7667;51.232;17.110;2023-07-29T08:36:03;2.50;;;1.20;;
15132;SDS011;7667;51.232;17.110;2023-07-29T08:38:31;1.40;;;1.30;;
15132;SDS011;7667;51.232;17.110;2023-07-29T08:41:01;1.42;;;1.33;;
15132;SDS011;7667;51.232;17.110;2023-07-29T08:43:43;1.45;;;1.35;;
15132;SDS011;7667;51.232;17.110;2023-07-29T08:46:50;1.90;;;1.63;;
15132;SDS011;7667;51.232;17.110;2023-07-29T08:49:20;2.72;;;1.20;;
15132;SDS011;7667;51.232;17.110;2023-07-29T08:51:49;4.22;;;1.20;;
15132;SDS011;7667;51.232;17.110;2023-07-29T08:54:20;1.55;;;1.20;;
15132;SDS011;7667;51.232;17.110;2023-07-29T08:56:48;1.20;;;1.10;;
15132;SDS011;7667;51.232;17.110;2023-07-29T08:59:16;3.92;;;1.30;;
15132;SDS011;7667;51.232;17.110;2023-07-29T09:01:43;294.55;;;18.92;;
15132;SDS011;7667;51.232;17.110;2023-07-29T09:04:11;1.83;;;1.00;;
15132;SDS011;7667;51.232;17.110;2023-07-29T09:06:39;1.50;;;1.40;;
15132;SDS011;7667;51.232;17.110;2023-07-29T09:09:10;2.80;;;1.20;;
15132;SDS011;7667;51.232;17.110;2023-07-29T09:11:38;1.70;;;1.40;;
15132;SDS011;7667;51.232;17.110;2023-07-29T09:14:05;2.95;;;1.33;;
15132;SDS011;7667;51.232;17.110;2023-07-29T09:16:35;1.42;;;1.33;;
15132;SDS011;7667;51.232;17.110;2023-07-29T09:19:03;2.90;;;1.23;;
15132;SDS011;7667;51.232;17.110;2023-07-29T09:21:31;1.73;;;1.38;;
15132;SDS011;7667;51.232;17.110;2023-07-29T09:24:02;1.70;;;1.25;;
15132;SDS011;7667;51.232;17.110;2023-07-29T09:26:34;1.40;;;1.30;;
15132;SDS011;7667;51.232;17.110;2023-07-29T09:29:03;1.30;;;1.20;;
15132;SDS011;7667;51.232;17.110;2023-07-29T09:31:31;1.40;;;1.30;;
15132;SDS011;7667;51.232;17.110;2023-07-29T09:34:02;1.63;;;1.23;;
15132;SDS011;7667;51.232;17.110;2023-07-29T09:36:32;2.30;;;1.20;;
15132;SDS011;7667;51.232;17.110;2023-07-29T09:39:01;2.35;;;1.10;;
15132;SDS011;7667;51.232;17.110;2023-07-29T09:41:30;1.25;;;1.15;;
15132;SDS011;7667;51.232;17.110;2023-07-29T09:43:58;1.40;;;1.08;;
15132;SDS011;7667;51.232;17.110;2023-07-29T09:46:37;2.00;;;1.23;;
15132;SDS011;7667;51.232;17.110;2023-07-29T09:49:06;1.60;;;1.23;;
15132;SDS011;7667;51.232;17.110;2023-07-29T09:51:38;0.98;;;0.98;;
15132;SDS011;7667;51.232;17.110;2023-07-29T09:54:06;1.13;;;1.02;;
15132;SDS011;7667;51.232;17.110;2023-07-29T09:56:39;1.13;;;1.02;;
15132;SDS011;7667;51.232;17.110;2023-07-29T09:59:11;1.35;;;0.98;;
15132;SDS011;7667;51.232;17.110;2023-07-29T10:01:39;1.13;;;1.05;;
15132;SDS011;7667;51.232;17.110;2023-07-29T10:04:08;1.27;;;1.17;;
15132;SDS011;7667;51.232;17.110;2023-07-29T10:06:39;1.27;;;1.17;;
15132;SDS011;7667;51.232;17.110;2023-07-29T10:09:10;1.17;;;1.08;;
15132;SDS011;7667;51.232;17.110;2023-07-29T10:11:39;1.30;;;1.20;;
15132;SDS011;7667;51.232;17.110;2023-07-29T10:14:08;3.00;;;1.00;;
15132;SDS011;7667;51.232;17.110;2023-07-29T10:16:36;2.45;;;1.17;;
15132;SDS011;7667;51.232;17.110;2023-07-29T10:19:05;1.38;;;1.27;;
15132;SDS011;7667;51.232;17.110;2023-07-29T10:21:36;1.15;;;1.05;;
15132;SDS011;7667;51.232;17.110;2023-07-29T10:24:09;1.77;;;1.20;;
15132;SDS011;7667;51.232;17.110;2023-07-29T10:26:46;1.40;;;1.30;;
15132;SDS011;7667;51.232;17.110;2023-07-29T10:29:19;1.10;;;0.90;;
15132;SDS011;7667;51.232;17.110;2023-07-29T10:31:53;0.93;;;0.93;;
15132;SDS011;7667;51.232;17.110;2023-07-29T10:34:24;4.20;;;1.15;;
15132;SDS011;7667;51.232;17.110;2023-07-29T10:36:52;1.85;;;0.90;;
15132;SDS011;7667;51.232;17.110;2023-07-29T10:39:21;1.30;;;1.20;;
15132;SDS011;7667;51.232;17.110;2023-07-29T10:41:55;1.40;;;1.30;;
15132;SDS011;7667;51.232;17.110;2023-07-29T10:47:13;1.60;;;1.20;;
15132;SDS011;7667;51.232;17.110;2023-07-29T10:49:42;1.13;;;1.02;;
15132;SDS011;7667;51.232;17.110;2023-07-29T10:52:14;1.38;;;1.10;;
15132;SDS011;7667;51.232;17.110;2023-07-29T10:54:44;1.45;;;1.30;;
15132;SDS011;7667;51.232;17.110;2023-07-29T10:57:14;1.40;;;1.30;;
15132;SDS011;7667;51.232;17.110;2023-07-29T10:59:56;2.30;;;1.73;;
15132;SDS011;7667;51.232;17.110;2023-07-29T11:02:29;1.38;;;1.27;;
15132;SDS011;7667;51.232;17.110;2023-07-29T11:05:15;1.52;;;1.42;;
15132;SDS011;7667;51.232;17.110;2023-07-29T11:07:45;1.63;;;1.50;;
15132;SDS011;7667;51.232;17.110;2023-07-29T11:10:14;1.50;;;1.40;;
15132;SDS011;7667;51.232;17.110;2023-07-29T11:12:46;1.35;;;1.25;;
15132;SDS011;7667;51.232;17.110;2023-07-29T11:20:28;1.70;;;1.60;;
15132;SDS011;7667;51.232;17.110;2023-07-29T11:22:58;1.60;;;1.50;;
15132;SDS011;7667;51.232;17.110;2023-07-29T11:25:29;1.85;;;1.48;;
15132;SDS011;7667;51.232;17.110;2023-07-29T11:27:58;1.85;;;1.73;;
15132;SDS011;7667;51.232;17.110;2023-07-29T11:30:31;1.83;;;1.73;;
15132;SDS011;7667;51.232;17.110;2023-07-29T11:33:00;2.42;;;1.67;;
15132;SDS011;7667;51.232;17.110;2023-07-29T11:35:28;1.90;;;1.70;;
15132;SDS011;7667;51.232;17.110;2023-07-29T11:37:56;2.22;;;1.65;;
15132;SDS011;7667;51.232;17.110;2023-07-29T11:40:23;1.90;;;1.70;;
15132;SDS011;7667;51.232;17.110;2023-07-29T11:42:52;1.90;;;1.80;;
15132;SDS011;7667;51.232;17.110;2023-07-29T11:45:22;1.90;;;1.80;;
15132;SDS011;7667;51.232;17.110;2023-07-29T11:48:01;2.13;;;2.00;;
15132;SDS011;7667;51.232;17.110;2023-07-29T11:50:29;2.08;;;1.90;;
15132;SDS011;7667;51.232;17.110;2023-07-29T11:52:57;2.13;;;1.98;;
15132;SDS011;7667;51.232;17.110;2023-07-29T11:55:25;2.13;;;1.75;;
15132;SDS011;7667;51.232;17.110;2023-07-29T11:57:53;3.13;;;2.00;;
15132;SDS011;7667;51.232;17.110;2023-07-29T12:00:21;4.82;;;2.20;;
15132;SDS011;7667;51.232;17.110;2023-07-29T12:02:48;3.05;;;1.83;;
15132;SDS011;7667;51.232;17.110;2023-07-29T12:05:17;2.28;;;1.80;;
15132;SDS011;7667;51.232;17.110;2023-07-29T12:07:48;1.85;;;1.75;;
15132;SDS011;7667;51.232;17.110;2023-07-29T12:10:16;1.85;;;1.70;;
15132;SDS011;7667;51.232;17.110;2023-07-29T12:12:46;1.60;;;1.50;;
15132;SDS011;7667;51.232;17.110;2023-07-29T12:15:26;1.70;;;1.60;;
15132;SDS011;7667;51.232;17.110;2023-07-29T12:17:56;1.65;;;1.55;;
15132;SDS011;7667;51.232;17.110;2023-07-29T12:20:25;1.70;;;1.60;;
15132;SDS011;7667;51.232;17.110;2023-07-29T12:22:59;2.53;;;1.50;;
15132;SDS011;7667;51.232;17.110;2023-07-29T12:25:32;2.30;;;1.40;;
15132;SDS011;7667;51.232;17.110;2023-07-29T12:28:04;1.60;;;1.40;;
15132;SDS011;7667;51.232;17.110;2023-07-29T12:30:34;3.90;;;1.52;;
15132;SDS011;7667;51.232;17.110;2023-07-29T12:33:08;1.40;;;1.30;;
15132;SDS011;7667;51.232;17.110;2023-07-29T12:35:36;1.30;;;1.20;;
15132;SDS011;7667;51.232;17.110;2023-07-29T12:38:04;1.38;;;1.15;;
15132;SDS011;7667;51.232;17.110;2023-07-29T12:40:32;1.45;;;1.20;;
15132;SDS011;7667;51.232;17.110;2023-07-29T12:43:04;2.28;;;1.40;;
15132;SDS011;7667;51.232;17.110;2023-07-29T12:45:35;1.10;;;1.00;;
15132;SDS011;7667;51.232;17.110;2023-07-29T12:48:07;3.92;;;0.98;;
15132;SDS011;7667;51.232;17.110;2023-07-29T12:50:38;0.70;;;0.70;;
15132;SDS011;7667;51.232;17.110;2023-07-29T12:53:06;1.65;;;0.90;;
15132;SDS011;7667;51.232;17.110;2023-07-29T12:55:37;1.05;;;0.98;;
15132;SDS011;7667;51.232;17.110;2023-07-29T12:58:04;2.30;;;1.00;;
15132;SDS011;7667;51.232;17.110;2023-07-29T13:00:32;1.15;;;0.95;;
15132;SDS011;7667;51.232;17.110;2023-07-29T13:03:00;1.25;;;0.90;;
15132;SDS011;7667;51.232;17.110;2023-07-29T13:05:27;1.77;;;0.80;;
15132;SDS011;7667;51.232;17.110;2023-07-29T13:07:55;1.42;;;0.95;;
15132;SDS011;7667;51.232;17.110;2023-07-29T13:10:22;1.10;;;1.00;;
15132;SDS011;7667;51.232;17.110;2023-07-29T13:12:50;1.80;;;0.90;;
15132;SDS011;7667;51.232;17.110;2023-07-29T13:15:18;0.93;;;0.82;;
15132;SDS011;7667;51.232;17.110;2023-07-29T13:17:45;1.92;;;0.70;;
15132;SDS011;7667;51.232;17.110;2023-07-29T13:20:13;2.38;;;0.98;;
15132;SDS011;7667;51.232;17.110;2023-07-29T13:22:40;2.35;;;0.80;;
15132;SDS011;7667;51.232;17.110;2023-07-29T13:25:08;0.90;;;0.90;;
15132;SDS011;7667;51.232;17.110;2023-07-29T13:27:35;2.05;;;1.00;;
15132;SDS011;7667;51.232;17.110;2023-07-29T13:30:03;0.90;;;0.90;;
15132;SDS011;7667;51.232;17.110;2023-07-29T13:32:32;0.77;;;0.77;;
15132;SDS011;7667;51.232;17.110;2023-07-29T13:34:59;1.20;;;0.73;;
15132;SDS011;7667;51.232;17.110;2023-07-29T13:37:27;3.05;;;1.00;;
15132;SDS011;7667;51.232;17.110;2023-07-29T13:39:54;0.90;;;0.90;;
15132;SDS011;7667;51.232;17.110;2023-07-29T13:42:22;1.08;;;0.98;;
15132;SDS011;7667;51.232;17.110;2023-07-29T13:44:49;1.10;;;1.00;;
15132;SDS011;7667;51.232;17.110;2023-07-29T13:47:17;3.15;;;1.00;;
15132;SDS011;7667;51.232;17.110;2023-07-29T13:49:44;1.55;;;0.70;;
15132;SDS011;7667;51.232;17.110;2023-07-29T13:52:13;2.53;;;0.70;;
15132;SDS011;7667;51.232;17.110;2023-07-29T13:54:41;1.55;;;1.00;;
15132;SDS011;7667;51.232;17.110;2023-07-29T13:57:09;2.15;;;0.80;;
15132;SDS011;7667;51.232;17.110;2023-07-29T13:59:37;0.90;;;0.90;;
15132;SDS011;7667;51.232;17.110;2023-07-29T14:02:05;0.98;;;0.90;;
15132;SDS011;7667;51.232;17.110;2023-07-29T14:04:33;0.90;;;0.90;;
15132;SDS011;7667;51.232;17.110;2023-07-29T14:07:01;1.55;;;1.00;;
15132;SDS011;7667;51.232;17.110;2023-07-29T14:09:29;1.10;;;1.00;;
15132;SDS011;7667;51.232;17.110;2023-07-29T14:11:57;2.33;;;1.00;;
15132;SDS011;7667;51.232;17.110;2023-07-29T14:14:24;2.88;;;1.15;;
15132;SDS011;7667;51.232;17.110;2023-07-29T14:16:52;2.45;;;1.00;;
15132;SDS011;7667;51.232;17.110;2023-07-29T14:19:19;1.10;;;0.98;;
15132;SDS011;7667;51.232;17.110;2023-07-29T14:21:47;6.05;;;1.20;;
15132;SDS011;7667;51.232;17.110;2023-07-29T14:24:15;1.30;;;1.20;;
15132;SDS011;7667;51.232;17.110;2023-07-29T14:26:43;1.10;;;0.93;;
15132;SDS011;7667;51.232;17.110;2023-07-29T14:29:10;1.00;;;0.82;;
15132;SDS011;7667;51.232;17.110;2023-07-29T14:31:38;1.55;;;1.00;;
15132;SDS011;7667;51.232;17.110;2023-07-29T14:34:05;2.05;;;0.90;;
15132;SDS011;7667;51.232;17.110;2023-07-29T14:36:33;1.83;;;0.98;;
15132;SDS011;7667;51.232;17.110;2023-07-29T14:39:01;1.10;;;1.00;;
15132;SDS011;7667;51.232;17.110;2023-07-29T14:41:29;1.10;;;1.00;;
15132;SDS011;7667;51.232;17.110;2023-07-29T14:43:57;1.00;;;0.90;;
15132;SDS011;7667;51.232;17.110;2023-07-29T14:46:25;3.08;;;0.98;;
15132;SDS011;7667;51.232;17.110;2023-07-29T14:48:52;1.00;;;0.90;;
15132;SDS011;7667;51.232;17.110;2023-07-29T14:51:20;1.02;;;0.90;;
15132;SDS011;7667;51.232;17.110;2023-07-29T14:53:47;2.88;;;0.80;;
15132;SDS011;7667;51.232;17.110;2023-07-29T14:56:15;2.63;;;0.98;;
15132;SDS011;7667;51.232;17.110;2023-07-29T14:58:46;1.50;;;1.10;;
15132;SDS011;7667;51.232;17.110;2023-07-29T15:01:13;1.20;;;0.93;;
15132;SDS011;7667;51.232;17.110;2023-07-29T15:03:41;1.63;;;0.80;;
15132;SDS011;7667;51.232;17.110;2023-07-29T15:06:12;2.70;;;0.90;;
15132;SDS011;7667;51.232;17.110;2023-07-29T15:08:39;2.47;;;1.00;;
15132;SDS011;7667;51.232;17.110;2023-07-29T15:11:07;1.05;;;0.90;;
15132;SDS011;7667;51.232;17.110;2023-07-29T15:13:35;0.73;;;0.73;;
15132;SDS011;7667;51.232;17.110;2023-07-29T15:16:02;2.65;;;0.80;;
15132;SDS011;7667;51.232;17.110;2023-07-29T15:18:30;2.20;;;0.90;;